sensor_id;sensor_type;location;lat;lon;timestamp;temperature;humidity
29363;DHT22;16349;53.672;10.014;2023-12-20T00:02:19;5.70;99.90
29363;DHT22;16349;53.672;10.014;2023-12-20T00:04:46;5.70;99.90
29363;DHT22;16349;53.672;10.014;2023-12-20T00:07:15;5.70;99.90
29363;DHT22;16349;53.672;10.014;2023-12-20T00:09:42;5.70;99.90
29363;DHT22;16349;53.672;10.014;2023-12-20T00:12:10;5.60;99.90
29363;DHT22;16349;53.672;10.014;2023-12-20T00:14:36;5.60;99.90
29363;DHT22;16349;53.672;10.014;2023-12-20T00:17:03;5.60;99.90
29363;DHT22;16349;53.672;10.014;2023-12-20T00:19:30;5.60;99.90
29363;DHT22;16349;53.672;10.014;2023-12-20T00:21:57;5.60;99.90
29363;DHT22;16349;53.672;10.014;2023-12-20T00:24:26;5.50;99.90
29363;DHT22;16349;53.672;10.014;2023-12-20T00:26:53;5.50;99.90
29363;DHT22;16349;53.672;10.014;2023-12-20T00:29:20;5.50;99.90
29363;DHT22;16349;53.672;10.014;2023-12-20T00:31:47;5.50;99.90
29363;DHT22;16349;53.672;10.014;2023-12-20T00:34:13;5.50;99.90
29363;DHT22;16349;53.672;10.014;2023-12-20T00:36:40;5.50;99.90
29363;DHT22;16349;53.672;10.014;2023-12-20T00:39:07;5.40;99.90
29363;DHT22;16349;53.672;10.014;2023-12-20T00:41:35;5.50;99.90
29363;DHT22;16349;53.672;10.014;2023-12-20T00:44:02;5.50;99.90
29363;DHT22;16349;53.672;10.014;2023-12-20T00:46:29;5.50;99.90
29363;DHT22;16349;53.672;10.014;2023-12-20T00:48:56;5.50;99.90
29363;DHT22;16349;53.672;10.014;2023-12-20T00:51:23;5.50;99.90
29363;DHT22;16349;53.672;10.014;2023-12-20T00:53:50;5.50;99.90
29363;DHT22;16349;53.672;10.014;2023-12-20T00:56:20;5.50;99.90
29363;DHT22;16349;53.672;10.014;2023-12-20T00:58:48;5.50;99.90
29363;DHT22;16349;53.672;10.014;2023-12-20T01:01:15;5.50;99.90
29363;DHT22;16349;53.672;10.014;2023-12-20T01:03:43;5.50;99.90
29363;DHT22;16349;53.672;10.014;2023-12-20T01:06:10;5.50;99.90
29363;DHT22;16349;53.672;10.014;2023-12-20T01:08:37;5.60;99.90
29363;DHT22;16349;53.672;10.014;2023-12-20T01:11:04;5.50;99.90
29363;DHT22;16349;53.672;10.014;2023-12-20T01:13:31;5.50;99.90
29363;DHT22;16349;53.672;10.014;2023-12-20T01:15:59;5.50;99.90
29363;DHT22;16349;53.672;10.014;2023-12-20T01:18:26;5.50;99.90
29363;DHT22;16349;53.672;10.014;2023-12-20T01:20:53;5.50;99.90
29363;DHT22;16349;53.672;10.014;2023-12-20T01:23:21;5.40;99.90
29363;DHT22;16349;53.672;10.014;2023-12-20T01:25:48;5.40;99.90
29363;DHT22;16349;53.672;10.014;2023-12-20T01:28:15;5.40;99.90
29363;DHT22;16349;53.672;10.014;2023-12-20T01:30:42;5.40;99.90
29363;DHT22;16349;53.672;10.014;2023-12-20T01:33:11;5.40;99.90
29363;DHT22;16349;53.672;10.014;2023-12-20T01:35:37;5.40;99.90
29363;DHT22;16349;53.672;10.014;2023-12-20T01:38:04;5.40;99.90
29363;DHT22;16349;53.672;10.014;2023-12-20T01:40:31;5.40;99.90
29363;DHT22;16349;53.672;10.014;2023-12-20T01:42:58;5.40;99.90
29363;DHT22;16349;53.672;10.014;2023-12-20T01:45:26;5.40;99.90
29363;DHT22;16349;53.672;10.014;2023-12-20T01:47:53;5.40;99.90
29363;DHT22;16349;53.672;10.014;2023-12-20T01:50:22;5.40;99.90
29363;DHT22;16349;53.672;10.014;2023-12-20T01:52:49;5.40;99.90
29363;DHT22;16349;53.672;10.014;2023-12-20T01:55:18;5.40;99.90
29363;DHT22;16349;53.672;10.014;2023-12-20T01:57:45;5.50;99.90
29363;DHT22;16349;53.672;10.014;2023-12-20T02:00:13;5.50;99.90
29363;DHT22;16349;53.672;10.014;2023-12-20T02:02:41;5.50;99.90
29363;DHT22;16349;53.672;10.014;2023-12-20T02:05:08;5.60;99.90
29363;DHT22;16349;53.672;10.014;2023-12-20T02:07:36;5.50;99.90
29363;DHT22;16349;53.672;10.014;2023-12-20T02:10:04;5.50;99.90
29363;DHT22;16349;53.672;10.014;2023-12-20T02:12:31;5.50;99.90
29363;DHT22;16349;53.672;10.014;2023-12-20T02:14:58;5.50;99.90
29363;DHT22;16349;53.672;10.014;2023-12-20T02:17:25;5.50;99.90
29363;DHT22;16349;53.672;10.014;2023-12-20T02:19:52;5.50;99.90
29363;DHT22;16349;53.672;10.014;2023-12-20T02:22:20;5.50;99.90
29363;DHT22;16349;53.672;10.014;2023-12-20T02:24:47;5.50;99.90
29363;DHT22;16349;53.672;10.014;2023-12-20T02:27:15;5.50;99.90
29363;DHT22;16349;53.672;10.014;2023-12-20T02:29:43;5.50;99.90
29363;DHT22;16349;53.672;10.014;2023-12-20T02:32:09;5.50;99.90
29363;DHT22;16349;53.672;10.014;2023-12-20T02:34:36;5.50;99.90
29363;DHT22;16349;53.672;10.014;2023-12-20T02:37:03;5.60;99.90
29363;DHT22;16349;53.672;10.014;2023-12-20T02:39:31;5.60;99.90
29363;DHT22;16349;53.672;10.014;2023-12-20T02:41:58;5.60;99.90
29363;DHT22;16349;53.672;10.014;2023-12-20T02:44:25;5.60;99.90
29363;DHT22;16349;53.672;10.014;2023-12-20T02:46:52;5.60;99.90
29363;DHT22;16349;53.672;10.014;2023-12-20T02:49:19;5.60;99.90
29363;DHT22;16349;53.672;10.014;2023-12-20T02:51:46;5.60;99.90
29363;DHT22;16349;53.672;10.014;2023-12-20T02:54:13;5.60;99.90
29363;DHT22;16349;53.672;10.014;2023-12-20T02:56:41;5.60;99.90
29363;DHT22;16349;53.672;10.014;2023-12-20T02:59:08;5.60;99.90
29363;DHT22;16349;53.672;10.014;2023-12-20T03:01:35;5.60;99.90
29363;DHT22;16349;53.672;10.014;2023-12-20T03:04:02;5.60;99.90
29363;DHT22;16349;53.672;10.014;2023-12-20T03:06:28;5.70;99.90
29363;DHT22;16349;53.672;10.014;2023-12-20T03:08:55;5.60;99.90
29363;DHT22;16349;53.672;10.014;2023-12-20T03:11:26;5.60;99.90
29363;DHT22;16349;53.672;10.014;2023-12-20T03:13:54;5.60;99.90
29363;DHT22;16349;53.672;10.014;2023-12-20T03:16:21;5.60;99.90
29363;DHT22;16349;53.672;10.014;2023-12-20T03:18:48;5.70;99.90
29363;DHT22;16349;53.672;10.014;2023-12-20T03:21:15;5.60;99.90
29363;DHT22;16349;53.672;10.014;2023-12-20T03:23:42;5.60;99.90
29363;DHT22;16349;53.672;10.014;2023-12-20T03:26:10;5.60;99.90
29363;DHT22;16349;53.672;10.014;2023-12-20T03:28:36;5.60;99.90
29363;DHT22;16349;53.672;10.014;2023-12-20T03:31:05;5.60;99.90
29363;DHT22;16349;53.672;10.014;2023-12-20T03:33:32;5.70;99.90
29363;DHT22;16349;53.672;10.014;2023-12-20T03:35:58;5.60;99.90
29363;DHT22;16349;53.672;10.014;2023-12-20T03:38:28;5.70;99.90
29363;DHT22;16349;53.672;10.014;2023-12-20T03:40:55;5.70;99.90
29363;DHT22;16349;53.672;10.014;2023-12-20T03:43:22;5.70;99.90
29363;DHT22;16349;53.672;10.014;2023-12-20T03:45:49;5.70;99.90
29363;DHT22;16349;53.672;10.014;2023-12-20T03:48:17;5.70;99.90
29363;DHT22;16349;53.672;10.014;2023-12-20T03:50:44;5.60;99.90
29363;DHT22;16349;53.672;10.014;2023-12-20T03:53:10;5.70;99.90
29363;DHT22;16349;53.672;10.014;2023-12-20T03:55:37;5.60;99.90
29363;DHT22;16349;53.672;10.014;2023-12-20T03:58:04;5.60;99.90
29363;DHT22;16349;53.672;10.014;2023-12-20T04:00:31;5.60;99.90
29363;DHT22;16349;53.672;10.014;2023-12-20T04:02:58;5.60;99.90
29363;DHT22;16349;53.672;10.014;2023-12-20T04:05:26;5.60;99.90
29363;DHT22;16349;53.672;10.014;2023-12-20T04:07:53;5.60;99.90
29363;DHT22;16349;53.672;10.014;2023-12-20T04:10:20;5.60;99.90
29363;DHT22;16349;53.672;10.014;2023-12-20T04:12:47;5.60;99.90
29363;DHT22;16349;53.672;10.014;2023-12-20T04:15:13;5.60;99.90
29363;DHT22;16349;53.672;10.014;2023-12-20T04:17:40;5.60;99.90
29363;DHT22;16349;53.672;10.014;2023-12-20T04:20:08;5.60;99.90
29363;DHT22;16349;53.672;10.014;2023-12-20T04:22:36;5.60;99.90
29363;DHT22;16349;53.672;10.014;2023-12-20T04:25:03;5.70;99.90
29363;DHT22;16349;53.672;10.014;2023-12-20T04:27:30;5.70;99.90
29363;DHT22;16349;53.672;10.014;2023-12-20T04:29:57;5.60;99.90
29363;DHT22;16349;53.672;10.014;2023-12-20T04:32:24;5.60;99.90
29363;DHT22;16349;53.672;10.014;2023-12-20T04:34:51;5.60;99.90
29363;DHT22;16349;53.672;10.014;2023-12-20T04:37:17;5.60;99.90
29363;DHT22;16349;53.672;10.014;2023-12-20T04:39:46;5.70;99.90
29363;DHT22;16349;53.672;10.014;2023-12-20T04:42:12;5.60;99.90
29363;DHT22;16349;53.672;10.014;2023-12-20T04:44:39;5.60;99.90
29363;DHT22;16349;53.672;10.014;2023-12-20T04:47:06;5.70;99.90
29363;DHT22;16349;53.672;10.014;2023-12-20T04:49:33;5.70;99.90
29363;DHT22;16349;53.672;10.014;2023-12-20T04:51:59;5.70;99.90
29363;DHT22;16349;53.672;10.014;2023-12-20T04:54:26;5.70;99.90
29363;DHT22;16349;53.672;10.014;2023-12-20T04:56:54;5.70;99.90
29363;DHT22;16349;53.672;10.014;2023-12-20T04:59:22;5.70;99.90
29363;DHT22;16349;53.672;10.014;2023-12-20T05:01:49;5.70;99.90
29363;DHT22;16349;53.672;10.014;2023-12-20T05:04:16;5.70;99.90
29363;DHT22;16349;53.672;10.014;2023-12-20T05:06:42;5.70;99.90
29363;DHT22;16349;53.672;10.014;2023-12-20T05:09:09;5.70;99.90
29363;DHT22;16349;53.672;10.014;2023-12-20T05:11:36;5.70;99.90
29363;DHT22;16349;53.672;10.014;2023-12-20T05:14:04;5.80;99.90
29363;DHT22;16349;53.672;10.014;2023-12-20T05:16:31;5.80;99.90
29363;DHT22;16349;53.672;10.014;2023-12-20T05:18:58;5.80;99.90
29363;DHT22;16349;53.672;10.014;2023-12-20T05:21:26;5.80;99.90
29363;DHT22;16349;53.672;10.014;2023-12-20T05:23:53;5.80;99.90
29363;DHT22;16349;53.672;10.014;2023-12-20T05:26:20;5.80;99.90
29363;DHT22;16349;53.672;10.014;2023-12-20T05:28:46;5.90;99.90
29363;DHT22;16349;53.672;10.014;2023-12-20T05:31:14;5.90;99.90
29363;DHT22;16349;53.672;10.014;2023-12-20T05:33:41;5.90;99.90
29363;DHT22;16349;53.672;10.014;2023-12-20T05:36:08;5.90;99.90
29363;DHT22;16349;53.672;10.014;2023-12-20T05:38:36;6.00;99.90
29363;DHT22;16349;53.672;10.014;2023-12-20T05:41:03;6.00;99.90
29363;DHT22;16349;53.672;10.014;2023-12-20T05:43:30;6.00;99.90
29363;DHT22;16349;53.672;10.014;2023-12-20T05:45:57;6.00;99.90
29363;DHT22;16349;53.672;10.014;2023-12-20T05:48:25;5.90;99.90
29363;DHT22;16349;53.672;10.014;2023-12-20T05:50:52;5.90;99.90
29363;DHT22;16349;53.672;10.014;2023-12-20T05:53:19;5.90;99.90
29363;DHT22;16349;53.672;10.014;2023-12-20T05:55:46;5.90;99.90
29363;DHT22;16349;53.672;10.014;2023-12-20T05:58:13;5.90;99.90
29363;DHT22;16349;53.672;10.014;2023-12-20T06:00:39;5.90;99.90
29363;DHT22;16349;53.672;10.014;2023-12-20T06:03:06;5.90;99.90
29363;DHT22;16349;53.672;10.014;2023-12-20T06:05:34;5.90;99.90
29363;DHT22;16349;53.672;10.014;2023-12-20T06:08:01;5.90;99.90
29363;DHT22;16349;53.672;10.014;2023-12-20T06:10:28;5.90;99.90
29363;DHT22;16349;53.672;10.014;2023-12-20T06:12:55;5.90;99.90
29363;DHT22;16349;53.672;10.014;2023-12-20T06:15:24;5.90;99.90
29363;DHT22;16349;53.672;10.014;2023-12-20T06:17:50;5.90;99.90
29363;DHT22;16349;53.672;10.014;2023-12-20T06:20:17;5.90;99.90
29363;DHT22;16349;53.672;10.014;2023-12-20T06:22:46;5.90;99.90
29363;DHT22;16349;53.672;10.014;2023-12-20T06:25:12;5.90;99.90
29363;DHT22;16349;53.672;10.014;2023-12-20T06:27:40;5.90;99.90
29363;DHT22;16349;53.672;10.014;2023-12-20T06:30:08;6.00;99.90
29363;DHT22;16349;53.672;10.014;2023-12-20T06:32:35;5.90;99.90
29363;DHT22;16349;53.672;10.014;2023-12-20T06:35:04;6.00;99.90
29363;DHT22;16349;53.672;10.014;2023-12-20T06:37:31;6.00;99.90
29363;DHT22;16349;53.672;10.014;2023-12-20T06:39:59;6.00;99.90
29363;DHT22;16349;53.672;10.014;2023-12-20T06:42:26;6.00;99.90
29363;DHT22;16349;53.672;10.014;2023-12-20T06:44:53;6.00;99.90
29363;DHT22;16349;53.672;10.014;2023-12-20T06:47:20;6.00;99.90
29363;DHT22;16349;53.672;10.014;2023-12-20T06:49:46;6.00;99.90
29363;DHT22;16349;53.672;10.014;2023-12-20T06:52:13;6.00;99.90
29363;DHT22;16349;53.672;10.014;2023-12-20T06:54:40;6.10;99.90
29363;DHT22;16349;53.672;10.014;2023-12-20T06:57:08;6.10;99.90
29363;DHT22;16349;53.672;10.014;2023-12-20T06:59:38;6.10;99.90
29363;DHT22;16349;53.672;10.014;2023-12-20T07:02:05;6.10;99.90
29363;DHT22;16349;53.672;10.014;2023-12-20T07:04:32;6.10;99.90
29363;DHT22;16349;53.672;10.014;2023-12-20T07:06:59;6.10;99.90
29363;DHT22;16349;53.672;10.014;2023-12-20T07:09:26;6.10;99.90
29363;DHT22;16349;53.672;10.014;2023-12-20T07:11:53;6.10;99.90
29363;DHT22;16349;53.672;10.014;2023-12-20T07:14:21;6.10;99.90
29363;DHT22;16349;53.672;10.014;2023-12-20T07:16:48;6.10;99.90
29363;DHT22;16349;53.672;10.014;2023-12-20T07:19:15;6.10;99.90
29363;DHT22;16349;53.672;10.014;2023-12-20T07:21:42;6.10;99.90
29363;DHT22;16349;53.672;10.014;2023-12-20T07:24:08;6.10;99.90
29363;DHT22;16349;53.672;10.014;2023-12-20T07:26:35;6.10;99.90
29363;DHT22;16349;53.672;10.014;2023-12-20T07:29:03;6.10;99.90
29363;DHT22;16349;53.672;10.014;2023-12-20T07:31:31;6.10;99.90
29363;DHT22;16349;53.672;10.014;2023-12-20T07:33:58;6.10;99.90
29363;DHT22;16349;53.672;10.014;2023-12-20T07:36:25;6.10;99.90
29363;DHT22;16349;53.672;10.014;2023-12-20T07:38:51;6.10;99.90
29363;DHT22;16349;53.672;10.014;2023-12-20T07:41:18;6.10;99.90
29363;DHT22;16349;53.672;10.014;2023-12-20T07:43:48;6.10;99.90
29363;DHT22;16349;53.672;10.014;2023-12-20T07:46:14;6.10;99.90
29363;DHT22;16349;53.672;10.014;2023-12-20T07:48:43;6.10;99.90
29363;DHT22;16349;53.672;10.014;2023-12-20T07:51:10;6.10;99.90
29363;DHT22;16349;53.672;10.014;2023-12-20T07:53:36;6.10;99.90
29363;DHT22;16349;53.672;10.014;2023-12-20T07:56:13;6.10;99.90
29363;DHT22;16349;53.672;10.014;2023-12-20T07:58:40;6.10;99.90
29363;DHT22;16349;53.672;10.014;2023-12-20T08:01:07;6.20;99.90
29363;DHT22;16349;53.672;10.014;2023-12-20T08:03:34;6.20;99.90
29363;DHT22;16349;53.672;10.014;2023-12-20T08:06:02;6.20;99.90
29363;DHT22;16349;53.672;10.014;2023-12-20T08:08:30;6.20;99.90
29363;DHT22;16349;53.672;10.014;2023-12-20T08:10:56;6.20;99.90
29363;DHT22;16349;53.672;10.014;2023-12-20T08:13:25;6.20;99.90
29363;DHT22;16349;53.672;10.014;2023-12-20T08:15:53;6.20;99.90
29363;DHT22;16349;53.672;10.014;2023-12-20T08:18:21;6.20;99.90
29363;DHT22;16349;53.672;10.014;2023-12-20T08:20:49;6.30;99.90
29363;DHT22;16349;53.672;10.014;2023-12-20T08:23:19;6.30;99.90
29363;DHT22;16349;53.672;10.014;2023-12-20T08:25:47;6.30;99.90
29363;DHT22;16349;53.672;10.014;2023-12-20T08:28:14;6.40;99.90
29363;DHT22;16349;53.672;10.014;2023-12-20T08:30:41;6.40;99.90
29363;DHT22;16349;53.672;10.014;2023-12-20T08:33:08;6.40;99.90
29363;DHT22;16349;53.672;10.014;2023-12-20T08:35:38;6.40;99.90
29363;DHT22;16349;53.672;10.014;2023-12-20T08:38:05;6.50;99.90
29363;DHT22;16349;53.672;10.014;2023-12-20T08:40:33;6.50;99.90
29363;DHT22;16349;53.672;10.014;2023-12-20T08:43:01;6.50;99.90
29363;DHT22;16349;53.672;10.014;2023-12-20T08:45:28;6.50;99.90
29363;DHT22;16349;53.672;10.014;2023-12-20T08:47:55;6.50;99.90
29363;DHT22;16349;53.672;10.014;2023-12-20T08:50:22;6.60;99.90
29363;DHT22;16349;53.672;10.014;2023-12-20T08:52:48;6.60;99.90
29363;DHT22;16349;53.672;10.014;2023-12-20T08:55:15;6.60;99.90
29363;DHT22;16349;53.672;10.014;2023-12-20T08:57:45;6.60;99.90
29363;DHT22;16349;53.672;10.014;2023-12-20T09:00:13;6.60;99.90
29363;DHT22;16349;53.672;10.014;2023-12-20T09:02:40;6.60;99.90
29363;DHT22;16349;53.672;10.014;2023-12-20T09:05:07;6.60;99.90
29363;DHT22;16349;53.672;10.014;2023-12-20T09:07:34;6.60;99.90
29363;DHT22;16349;53.672;10.014;2023-12-20T09:10:01;6.60;99.90
29363;DHT22;16349;53.672;10.014;2023-12-20T09:12:29;6.50;99.90
29363;DHT22;16349;53.672;10.014;2023-12-20T09:14:57;6.50;99.90
29363;DHT22;16349;53.672;10.014;2023-12-20T09:17:24;6.40;99.90
29363;DHT22;16349;53.672;10.014;2023-12-20T09:19:51;6.40;99.90
29363;DHT22;16349;53.672;10.014;2023-12-20T09:22:19;6.40;99.90
29363;DHT22;16349;53.672;10.014;2023-12-20T09:24:46;6.30;99.90
29363;DHT22;16349;53.672;10.014;2023-12-20T09:27:13;6.30;99.90
29363;DHT22;16349;53.672;10.014;2023-12-20T09:29:40;6.20;99.90
29363;DHT22;16349;53.672;10.014;2023-12-20T09:32:08;6.20;99.90
29363;DHT22;16349;53.672;10.014;2023-12-20T09:34:34;6.10;99.90
29363;DHT22;16349;53.672;10.014;2023-12-20T09:37:03;6.00;99.90
29363;DHT22;16349;53.672;10.014;2023-12-20T09:39:31;5.90;99.90
29363;DHT22;16349;53.672;10.014;2023-12-20T09:42:01;5.80;99.90
29363;DHT22;16349;53.672;10.014;2023-12-20T09:44:28;5.80;99.90
29363;DHT22;16349;53.672;10.014;2023-12-20T09:46:56;5.80;99.90
29363;DHT22;16349;53.672;10.014;2023-12-20T09:49:25;5.70;99.90
29363;DHT22;16349;53.672;10.014;2023-12-20T09:51:54;5.70;99.90
29363;DHT22;16349;53.672;10.014;2023-12-20T09:54:23;5.60;99.90
29363;DHT22;16349;53.672;10.014;2023-12-20T09:56:50;5.60;99.90
29363;DHT22;16349;53.672;10.014;2023-12-20T09:59:17;5.60;99.90
29363;DHT22;16349;53.672;10.014;2023-12-20T10:01:44;5.60;99.90
29363;DHT22;16349;53.672;10.014;2023-12-20T10:04:12;5.50;99.90
29363;DHT22;16349;53.672;10.014;2023-12-20T10:06:41;5.50;99.90
29363;DHT22;16349;53.672;10.014;2023-12-20T10:09:09;5.40;99.90
29363;DHT22;16349;53.672;10.014;2023-12-20T10:11:36;5.50;99.90
29363;DHT22;16349;53.672;10.014;2023-12-20T10:14:04;5.50;99.90
29363;DHT22;16349;53.672;10.014;2023-12-20T10:16:31;5.50;99.90
29363;DHT22;16349;53.672;10.014;2023-12-20T10:18:59;5.50;99.90
29363;DHT22;16349;53.672;10.014;2023-12-20T10:21:26;5.50;99.90
29363;DHT22;16349;53.672;10.014;2023-12-20T10:23:55;5.50;99.90
29363;DHT22;16349;53.672;10.014;2023-12-20T10:26:23;5.50;99.90
29363;DHT22;16349;53.672;10.014;2023-12-20T10:28:51;5.40;99.90
29363;DHT22;16349;53.672;10.014;2023-12-20T10:31:29;5.50;99.90
29363;DHT22;16349;53.672;10.014;2023-12-20T10:33:56;5.50;99.90
29363;DHT22;16349;53.672;10.014;2023-12-20T10:36:25;5.40;99.90
29363;DHT22;16349;53.672;10.014;2023-12-20T10:38:55;5.50;99.90
29363;DHT22;16349;53.672;10.014;2023-12-20T10:41:26;5.50;99.90
29363;DHT22;16349;53.672;10.014;2023-12-20T10:43:56;5.40;99.90
29363;DHT22;16349;53.672;10.014;2023-12-20T10:46:25;5.40;99.90
29363;DHT22;16349;53.672;10.014;2023-12-20T10:48:54;5.40;99.90
29363;DHT22;16349;53.672;10.014;2023-12-20T10:51:22;5.40;99.90
29363;DHT22;16349;53.672;10.014;2023-12-20T10:53:50;5.40;99.90
29363;DHT22;16349;53.672;10.014;2023-12-20T10:56:18;5.40;99.90
29363;DHT22;16349;53.672;10.014;2023-12-20T10:58:46;5.40;99.90
29363;DHT22;16349;53.672;10.014;2023-12-20T11:01:14;5.40;99.90
29363;DHT22;16349;53.672;10.014;2023-12-20T11:03:47;5.40;99.90
29363;DHT22;16349;53.672;10.014;2023-12-20T11:06:26;5.40;99.90
29363;DHT22;16349;53.672;10.014;2023-12-20T11:09:01;5.40;99.90
29363;DHT22;16349;53.672;10.014;2023-12-20T11:11:43;5.40;99.90
29363;DHT22;16349;53.672;10.014;2023-12-20T11:14:16;5.40;99.90
29363;DHT22;16349;53.672;10.014;2023-12-20T11:16:45;5.30;99.90
29363;DHT22;16349;53.672;10.014;2023-12-20T11:19:12;5.40;99.90
29363;DHT22;16349;53.672;10.014;2023-12-20T11:21:40;5.30;99.90
29363;DHT22;16349;53.672;10.014;2023-12-20T11:24:07;5.30;99.90
29363;DHT22;16349;53.672;10.014;2023-12-20T11:26:35;5.30;99.90
29363;DHT22;16349;53.672;10.014;2023-12-20T11:29:33;5.30;99.90
29363;DHT22;16349;53.672;10.014;2023-12-20T11:32:01;5.30;99.90
29363;DHT22;16349;53.672;10.014;2023-12-20T11:34:31;5.30;99.90
29363;DHT22;16349;53.672;10.014;2023-12-20T11:36:59;5.30;99.90
29363;DHT22;16349;53.672;10.014;2023-12-20T11:39:27;5.40;99.90
29363;DHT22;16349;53.672;10.014;2023-12-20T11:41:56;5.30;99.90
29363;DHT22;16349;53.672;10.014;2023-12-20T11:44:25;5.30;99.90
29363;DHT22;16349;53.672;10.014;2023-12-20T11:46:53;5.30;99.90
29363;DHT22;16349;53.672;10.014;2023-12-20T11:49:23;5.40;99.90
29363;DHT22;16349;53.672;10.014;2023-12-20T11:51:50;5.40;99.90
29363;DHT22;16349;53.672;10.014;2023-12-20T11:54:17;5.40;99.90
29363;DHT22;16349;53.672;10.014;2023-12-20T11:56:44;5.40;99.90
29363;DHT22;16349;53.672;10.014;2023-12-20T11:59:13;5.40;99.90
29363;DHT22;16349;53.672;10.014;2023-12-20T12:01:47;5.40;99.90
29363;DHT22;16349;53.672;10.014;2023-12-20T12:04:14;5.50;99.90
29363;DHT22;16349;53.672;10.014;2023-12-20T12:06:43;5.50;99.90
29363;DHT22;16349;53.672;10.014;2023-12-20T12:09:09;5.50;99.90
29363;DHT22;16349;53.672;10.014;2023-12-20T12:11:36;5.60;99.90
29363;DHT22;16349;53.672;10.014;2023-12-20T12:14:03;5.60;99.90
29363;DHT22;16349;53.672;10.014;2023-12-20T12:16:32;5.70;99.90
29363;DHT22;16349;53.672;10.014;2023-12-20T12:18:59;5.70;99.90
29363;DHT22;16349;53.672;10.014;2023-12-20T12:21:26;5.80;99.90
29363;DHT22;16349;53.672;10.014;2023-12-20T12:23:53;5.90;99.90
29363;DHT22;16349;53.672;10.014;2023-12-20T12:26:19;5.90;99.90
29363;DHT22;16349;53.672;10.014;2023-12-20T12:28:46;6.00;99.90
29363;DHT22;16349;53.672;10.014;2023-12-20T12:31:13;6.10;99.90
29363;DHT22;16349;53.672;10.014;2023-12-20T12:33:42;6.10;99.90
29363;DHT22;16349;53.672;10.014;2023-12-20T12:36:10;6.10;99.90
29363;DHT22;16349;53.672;10.014;2023-12-20T12:38:37;6.20;99.90
29363;DHT22;16349;53.672;10.014;2023-12-20T12:41:04;6.20;99.90
29363;DHT22;16349;53.672;10.014;2023-12-20T12:43:32;6.20;99.90
29363;DHT22;16349;53.672;10.014;2023-12-20T12:45:59;6.30;99.90
29363;DHT22;16349;53.672;10.014;2023-12-20T12:48:26;6.30;99.90
29363;DHT22;16349;53.672;10.014;2023-12-20T12:50:55;6.40;99.90
29363;DHT22;16349;53.672;10.014;2023-12-20T12:53:25;6.40;99.90
29363;DHT22;16349;53.672;10.014;2023-12-20T12:55:52;6.40;99.90
29363;DHT22;16349;53.672;10.014;2023-12-20T12:58:20;6.40;99.90
29363;DHT22;16349;53.672;10.014;2023-12-20T13:00:47;6.50;99.90
29363;DHT22;16349;53.672;10.014;2023-12-20T13:03:14;6.40;99.90
29363;DHT22;16349;53.672;10.014;2023-12-20T13:05:42;6.50;99.90
29363;DHT22;16349;53.672;10.014;2023-12-20T13:08:10;6.50;99.90
29363;DHT22;16349;53.672;10.014;2023-12-20T13:10:37;6.50;99.90
29363;DHT22;16349;53.672;10.014;2023-12-20T13:13:04;6.50;99.90
29363;DHT22;16349;53.672;10.014;2023-12-20T13:15:31;6.40;99.90
29363;DHT22;16349;53.672;10.014;2023-12-20T13:17:58;6.40;99.90
29363;DHT22;16349;53.672;10.014;2023-12-20T13:20:25;6.40;99.90
29363;DHT22;16349;53.672;10.014;2023-12-20T13:22:52;6.40;99.90
29363;DHT22;16349;53.672;10.014;2023-12-20T13:25:20;6.50;99.90
29363;DHT22;16349;53.672;10.014;2023-12-20T13:27:47;6.50;99.90
29363;DHT22;16349;53.672;10.014;2023-12-20T13:30:15;6.50;99.90
29363;DHT22;16349;53.672;10.014;2023-12-20T13:32:42;6.50;99.90
29363;DHT22;16349;53.672;10.014;2023-12-20T13:35:11;6.60;99.90
29363;DHT22;16349;53.672;10.014;2023-12-20T13:37:38;6.60;99.90
29363;DHT22;16349;53.672;10.014;2023-12-20T13:40:06;6.50;99.90
29363;DHT22;16349;53.672;10.014;2023-12-20T13:42:35;6.50;99.90
29363;DHT22;16349;53.672;10.014;2023-12-20T13:45:02;6.50;99.90
29363;DHT22;16349;53.672;10.014;2023-12-20T13:47:30;6.50;99.90
29363;DHT22;16349;53.672;10.014;2023-12-20T13:49:57;6.50;99.90
29363;DHT22;16349;53.672;10.014;2023-12-20T13:52:24;6.40;99.90
29363;DHT22;16349;53.672;10.014;2023-12-20T13:54:50;6.40;99.90
29363;DHT22;16349;53.672;10.014;2023-12-20T13:57:17;6.40;99.90
29363;DHT22;16349;53.672;10.014;2023-12-20T13:59:45;6.40;99.90
29363;DHT22;16349;53.672;10.014;2023-12-20T14:02:12;6.40;99.90
29363;DHT22;16349;53.672;10.014;2023-12-20T14:04:39;6.40;99.90
29363;DHT22;16349;53.672;10.014;2023-12-20T14:07:06;6.40;99.90
29363;DHT22;16349;53.672;10.014;2023-12-20T14:09:33;6.30;99.90
29363;DHT22;16349;53.672;10.014;2023-12-20T14:12:00;6.30;99.90
29363;DHT22;16349;53.672;10.014;2023-12-20T14:14:27;6.30;99.90
29363;DHT22;16349;53.672;10.014;2023-12-20T14:16:55;6.20;99.90
29363;DHT22;16349;53.672;10.014;2023-12-20T14:19:22;6.20;99.90
29363;DHT22;16349;53.672;10.014;2023-12-20T14:21:49;6.20;99.90
29363;DHT22;16349;53.672;10.014;2023-12-20T14:24:16;6.20;99.90
29363;DHT22;16349;53.672;10.014;2023-12-20T14:26:42;6.20;99.90
29363;DHT22;16349;53.672;10.014;2023-12-20T14:29:09;6.10;99.90
29363;DHT22;16349;53.672;10.014;2023-12-20T14:31:36;6.10;99.90
29363;DHT22;16349;53.672;10.014;2023-12-20T14:34:05;6.20;99.90
29363;DHT22;16349;53.672;10.014;2023-12-20T14:36:32;6.10;99.90
29363;DHT22;16349;53.672;10.014;2023-12-20T14:38:59;6.10;99.90
29363;DHT22;16349;53.672;10.014;2023-12-20T14:41:27;6.10;99.90
29363;DHT22;16349;53.672;10.014;2023-12-20T14:43:53;6.10;99.90
29363;DHT22;16349;53.672;10.014;2023-12-20T14:46:20;6.10;99.90
29363;DHT22;16349;53.672;10.014;2023-12-20T14:48:47;6.10;99.90
29363;DHT22;16349;53.672;10.014;2023-12-20T14:51:16;6.00;99.90
29363;DHT22;16349;53.672;10.014;2023-12-20T14:53:43;6.00;99.90
29363;DHT22;16349;53.672;10.014;2023-12-20T14:56:10;6.00;99.90
29363;DHT22;16349;53.672;10.014;2023-12-20T14:58:37;6.10;99.90
29363;DHT22;16349;53.672;10.014;2023-12-20T15:01:03;6.10;99.90
29363;DHT22;16349;53.672;10.014;2023-12-20T15:03:33;6.00;99.90
29363;DHT22;16349;53.672;10.014;2023-12-20T15:06:00;6.00;99.90
29363;DHT22;16349;53.672;10.014;2023-12-20T15:08:28;6.10;99.90
29363;DHT22;16349;53.672;10.014;2023-12-20T15:10:54;6.00;99.90
29363;DHT22;16349;53.672;10.014;2023-12-20T15:13:21;6.00;99.90
29363;DHT22;16349;53.672;10.014;2023-12-20T15:15:50;6.00;99.90
29363;DHT22;16349;53.672;10.014;2023-12-20T15:18:17;6.00;99.90
29363;DHT22;16349;53.672;10.014;2023-12-20T15:20:44;6.00;99.90
29363;DHT22;16349;53.672;10.014;2023-12-20T15:23:11;6.10;99.90
29363;DHT22;16349;53.672;10.014;2023-12-20T15:25:39;6.00;99.90
29363;DHT22;16349;53.672;10.014;2023-12-20T15:28:06;6.00;99.90
29363;DHT22;16349;53.672;10.014;2023-12-20T15:30:33;6.00;99.90
29363;DHT22;16349;53.672;10.014;2023-12-20T15:33:01;6.00;99.90